Time;durP1;ratioP1;P1;durP2;ratioP2;P2;SDS_P1;SDS_P2;PMS_P1;PMS_P2;Temp;Humidity;BMP_temperature;BMP_pressure;BME280_temperature;BME280_humidity;BME280_pressure;Samples;Min_cycle;Max_cycle;Signal;HPM_P1;HPM_P2
2023/06/11 00:01:05;;;;;;;9.57;5.25;;;17.90;99.90;;;;;;2603927;54;20042;31
2023/06/11 00:03:40;;;;;;;6.67;5.37;;;17.80;99.90;;;;;;2603463;54;20852;31
2023/06/11 00:06:21;;;;;;;6.45;4.85;;;17.80;99.90;;;;;;2603310;54;21093;31
2023/06/11 00:08:56;;;;;;;6.45;4.90;;;17.80;99.90;;;;;;2622358;46;21682;31
2023/06/11 00:11:30;;;;;;;11.20;6.13;;;17.70;99.90;;;;;;2622057;46;20058;31
2023/06/11 00:14:04;;;;;;;8.35;6.20;;;17.70;99.90;;;;;;2621672;46;20049;31
2023/06/11 00:16:40;;;;;;;8.77;5.68;;;17.70;99.90;;;;;;2602807;54;20790;31
2023/06/11 00:19:17;;;;;;;9.50;6.15;;;17.70;99.90;;;;;;2603614;54;20085;31
2023/06/11 00:21:56;;;;;;;;;;;17.60;99.90;;;;;;2603686;54;20081;31
2023/06/11 00:24:30;;;;;;;8.65;5.72;;;17.60;99.90;;;;;;2622025;46;20696;31
2023/06/11 00:27:06;;;;;;;6.07;5.23;;;17.50;99.90;;;;;;2610943;46;20743;31
2023/06/11 00:29:40;;;;;;;6.83;5.93;;;17.50;99.90;;;;;;2702161;39;21575;31
2023/06/11 00:32:15;;;;;;;10.50;6.00;;;17.50;99.90;;;;;;2603749;54;20108;31
2023/06/11 00:34:49;;;;;;;6.65;5.45;;;17.40;99.90;;;;;;2603624;54;20898;31
2023/06/11 00:37:30;;;;;;;7.53;5.23;;;17.40;99.90;;;;;;2603484;54;20030;31
2023/06/11 00:40:06;;;;;;;8.15;5.88;;;17.40;99.90;;;;;;2603636;54;20246;31
2023/06/11 00:42:40;;;;;;;11.33;5.53;;;17.30;99.90;;;;;;2702072;39;21584;31
2023/06/11 00:45:16;;;;;;;8.70;5.80;;;17.30;99.90;;;;;;2622154;46;20263;31
2023/06/11 00:47:52;;;;;;;7.00;5.70;;;17.20;99.90;;;;;;2622121;46;20880;31
2023/06/11 00:50:28;;;;;;;8.90;6.20;;;17.10;99.90;;;;;;2603657;54;20269;31
2023/06/11 00:53:05;;;;;;;7.50;6.00;;;17.00;99.90;;;;;;2701849;39;21524;31
2023/06/11 00:55:39;;;;;;;6.20;5.60;;;17.00;99.90;;;;;;2701840;39;21507;31
2023/06/11 00:58:17;;;;;;;6.97;6.28;;;16.90;99.90;;;;;;2720727;39;21512;31
2023/06/11 01:00:56;;;;;;;8.20;6.72;;;16.80;99.90;;;;;;2702138;39;21478;31
2023/06/11 01:03:33;;;;;;;6.80;6.10;;;16.70;99.90;;;;;;2603033;54;20863;31
2023/06/11 01:06:18;;;;;;;9.90;5.80;;;16.70;99.90;;;;;;2603378;54;20340;31
2023/06/11 01:08:57;;;;;;;7.10;5.75;;;16.60;99.90;;;;;;2603388;54;20030;31
2023/06/11 01:11:39;;;;;;;7.13;5.63;;;16.50;99.90;;;;;;2603226;54;20029;31
2023/06/11 01:14:16;;;;;;;6.72;5.97;;;16.40;99.90;;;;;;2701958;39;21516;31
2023/06/11 01:16:57;;;;;;;7.45;5.60;;;16.30;99.90;;;;;;2603573;54;20026;31
2023/06/11 01:19:44;;;;;;;9.02;5.93;;;16.30;99.90;;;;;;2603449;54;20080;31
2023/06/11 01:22:22;;;;;;;9.23;6.15;;;16.20;99.90;;;;;;2603281;54;20937;31
2023/06/11 01:25:16;;;;;;;6.05;5.30;;;16.10;99.90;;;;;;2603311;54;20030;31
2023/06/11 01:28:05;;;;;;;10.30;6.30;;;16.10;99.90;;;;;;2603206;54;20026;31
2023/06/11 01:33:13;;;;;;;7.78;5.30;;;16.00;99.90;;;;;;2603234;54;20030;31
2023/06/11 01:35:57;;;;;;;9.05;5.88;;;15.90;99.90;;;;;;2603435;54;20761;31
2023/06/11 01:38:41;;;;;;;6.70;5.78;;;15.90;99.90;;;;;;2603381;54;20856;31
2023/06/11 01:41:22;;;;;;;7.63;6.28;;;15.80;99.90;;;;;;2603324;54;20119;31
2023/06/11 01:44:00;;;;;;;11.77;6.30;;;15.80;99.90;;;;;;2603264;54;21348;31
2023/06/11 01:46:35;;;;;;;7.88;6.93;;;15.80;99.90;;;;;;2621657;46;20275;31
2023/06/11 01:49:09;;;;;;;8.17;7.37;;;15.70;99.90;;;;;;2603185;54;20832;31
2023/06/11 01:51:44;;;;;;;8.90;7.25;;;15.70;99.90;;;;;;2603209;54;20365;31
2023/06/11 01:54:20;;;;;;;9.88;7.53;;;15.60;99.90;;;;;;2603214;54;20854;31
2023/06/11 01:56:54;;;;;;;9.95;7.00;;;15.60;99.90;;;;;;2603058;54;20112;31
2023/06/11 01:59:32;;;;;;;9.18;6.65;;;15.50;99.90;;;;;;2603242;54;20048;31
2023/06/11 02:02:06;;;;;;;9.85;7.45;;;15.40;99.90;;;;;;2603362;54;20848;31
2023/06/11 02:04:41;;;;;;;10.25;7.50;;;15.40;99.90;;;;;;2603346;54;20037;31
2023/06/11 02:07:16;;;;;;;8.50;6.83;;;15.40;99.90;;;;;;2603174;54;20057;31
2023/06/11 02:09:51;;;;;;;7.95;7.10;;;15.40;99.90;;;;;;2603093;54;20026;31
2023/06/11 02:12:26;;;;;;;9.30;7.13;;;15.30;99.90;;;;;;2603170;54;20803;31
2023/06/11 02:15:04;;;;;;;10.40;7.77;;;15.30;99.90;;;;;;2603038;54;20105;31
2023/06/11 02:17:38;;;;;;;13.30;7.45;;;15.30;99.90;;;;;;2603048;54;20038;31
2023/06/11 02:20:15;;;;;;;10.63;7.95;;;15.30;99.90;;;;;;2602995;54;20869;31
2023/06/11 02:22:49;;;;;;;11.55;6.35;;;15.30;99.90;;;;;;2603121;54;20029;31
2023/06/11 02:25:23;;;;;;;8.80;7.30;;;15.30;99.90;;;;;;2602619;54;20291;31
2023/06/11 02:28:00;;;;;;;8.13;6.93;;;15.30;99.90;;;;;;2621362;46;20045;31
2023/06/11 02:30:36;;;;;;;11.35;7.25;;;15.40;99.90;;;;;;2602941;54;20870;31
2023/06/11 02:33:15;;;;;;;8.00;7.00;;;15.40;99.90;;;;;;2603136;54;20031;31
2023/06/11 02:35:49;;;;;;;8.65;7.35;;;15.40;99.90;;;;;;2603159;54;20833;31
2023/06/11 02:38:24;;;;;;;14.63;8.95;;;15.40;99.90;;;;;;2603130;54;20901;31
2023/06/11 02:40:58;;;;;;;15.65;7.72;;;15.40;99.90;;;;;;2602953;54;20026;31
2023/06/11 02:43:33;;;;;;;11.57;7.50;;;15.50;99.90;;;;;;2603114;54;20850;31
2023/06/11 02:46:08;;;;;;;8.00;7.07;;;15.50;99.90;;;;;;2720045;39;21328;31
2023/06/11 02:48:45;;;;;;;8.90;7.90;;;15.50;99.90;;;;;;2602801;54;20097;31
2023/06/11 02:51:19;;;;;;;9.30;8.35;;;15.50;99.90;;;;;;2602931;54;20033;31
2023/06/11 02:53:53;;;;;;;10.00;7.53;;;15.50;99.90;;;;;;2602950;54;20112;31
2023/06/11 02:56:29;;;;;;;12.15;8.90;;;15.50;99.90;;;;;;2602837;54;20104;31
2023/06/11 02:59:04;;;;;;;;;;;15.50;99.90;;;;;;2603142;54;20038;31
2023/06/11 03:01:39;;;;;;;9.60;7.05;;;15.50;99.90;;;;;;2603037;54;19935;31
2023/06/11 03:04:18;;;;;;;11.73;8.43;;;15.50;99.90;;;;;;2621667;46;20073;31
2023/06/11 03:06:53;;;;;;;11.35;7.55;;;15.60;99.90;;;;;;2602829;54;20899;31
2023/06/11 03:09:28;;;;;;;;;;;15.60;99.90;;;;;;2603002;54;20026;31
2023/06/11 03:12:02;;;;;;;9.48;7.78;;;15.60;99.90;;;;;;2602901;54;20847;31
2023/06/11 03:14:36;;;;;;;11.05;8.93;;;15.60;99.90;;;;;;2602898;54;21118;31
2023/06/11 03:17:12;;;;;;;12.68;9.40;;;15.60;99.90;;;;;;2621904;46;20845;31
2023/06/11 03:19:48;;;;;;;;;;;15.70;99.90;;;;;;2602966;54;20790;31
2023/06/11 03:22:22;;;;;;;12.27;9.45;;;15.70;99.90;;;;;;2602942;54;20089;31
2023/06/11 03:24:57;;;;;;;16.48;9.13;;;15.70;99.90;;;;;;2602971;54;20769;31
2023/06/11 03:27:37;;;;;;;10.70;9.27;;;15.80;99.90;;;;;;2602691;54;20104;31
2023/06/11 03:30:13;;;;;;;13.35;10.00;;;15.90;99.90;;;;;;2603080;54;20037;31
2023/06/11 03:32:48;;;;;;;12.80;9.30;;;16.00;99.90;;;;;;2621497;46;20871;31
2023/06/11 03:35:26;;;;;;;11.67;10.47;;;16.10;99.90;;;;;;2602853;54;20108;31
2023/06/11 03:38:02;;;;;;;10.40;9.40;;;16.10;99.90;;;;;;2602901;54;20029;31
2023/06/11 03:40:35;;;;;;;12.50;9.52;;;16.30;99.90;;;;;;2701434;39;22403;31
2023/06/11 03:43:12;;;;;;;13.57;10.60;;;16.40;99.90;;;;;;2602808;54;20027;31
2023/06/11 03:45:48;;;;;;;;;;;16.50;99.90;;;;;;2602898;54;20023;31
2023/06/11 03:48:23;;;;;;;11.65;9.90;;;16.70;99.90;;;;;;2621707;47;19957;31
2023/06/11 03:51:01;;;;;;;11.60;10.40;;;16.80;99.90;;;;;;2602850;54;20858;31
2023/06/11 03:53:37;;;;;;;12.30;9.60;;;16.90;99.90;;;;;;2602788;54;20754;31
2023/06/11 03:56:12;;;;;;;10.40;9.40;;;17.10;99.90;;;;;;2603065;54;20026;31
2023/06/11 03:58:47;;;;;;;14.87;10.60;;;17.10;99.90;;;;;;2602961;54;20057;31
2023/06/11 04:01:20;;;;;;;13.88;10.57;;;17.30;99.90;;;;;;2602879;54;22369;31
2023/06/11 04:03:55;;;;;;;13.55;10.55;;;17.30;99.90;;;;;;2621464;47;20887;31
2023/06/11 04:06:38;;;;;;;11.90;10.70;;;17.50;99.90;;;;;;2790819;31;21736;31
2023/06/11 04:09:14;;;;;;;12.85;11.13;;;17.60;99.90;;;;;;2602673;54;21001;31
2023/06/11 04:11:50;;;;;;;13.00;10.35;;;17.80;99.90;;;;;;2602616;54;20838;31
2023/06/11 04:14:24;;;;;;;12.77;11.50;;;17.90;99.90;;;;;;2602682;54;20026;31
2023/06/11 04:16:59;;;;;;;12.30;11.10;;;18.10;99.90;;;;;;2602685;54;20023;31
2023/06/11 04:19:34;;;;;;;12.15;10.95;;;18.20;99.90;;;;;;2602843;54;20054;31
2023/06/11 04:22:12;;;;;;;13.20;11.05;;;18.40;99.90;;;;;;2602716;54;20038;31
2023/06/11 04:24:47;;;;;;;11.73;10.43;;;18.60;99.90;;;;;;2621070;47;20112;31
2023/06/11 04:27:23;;;;;;;13.15;11.80;;;18.70;99.90;;;;;;2602502;54;20035;31
2023/06/11 04:29:58;;;;;;;12.23;10.88;;;18.80;99.90;;;;;;2602604;54;20042;31
2023/06/11 04:32:36;;;;;;;;;;;19.00;99.90;;;;;;2602678;54;20879;31
2023/06/11 04:35:12;;;;;;;13.27;11.73;;;19.20;99.90;;;;;;2602753;54;20074;31
2023/06/11 04:37:55;;;;;;;14.43;11.82;;;19.30;99.90;;;;;;2603093;54;20855;31
2023/06/11 04:40:33;;;;;;;12.43;10.90;;;19.40;99.90;;;;;;2603665;54;20739;31
2023/06/11 04:43:10;;;;;;;11.73;10.63;;;19.60;99.90;;;;;;2603369;54;20034;31
2023/06/11 04:45:49;;;;;;;13.37;11.93;;;19.80;99.90;;;;;;2603451;54;20052;31
2023/06/11 04:48:24;;;;;;;13.70;12.30;;;19.90;99.90;;;;;;2603408;54;20234;31
2023/06/11 04:51:00;;;;;;;11.60;10.30;;;20.00;99.90;;;;;;2603487;54;20900;31
2023/06/11 04:53:45;;;;;;;12.05;10.82;;;20.10;99.90;;;;;;2603424;54;20868;31
2023/06/11 04:56:23;;;;;;;11.63;10.48;;;20.30;99.90;;;;;;2603352;54;20084;31
2023/06/11 04:58:58;;;;;;;11.25;10.05;;;20.50;99.90;;;;;;2603556;54;20027;31
2023/06/11 05:01:37;;;;;;;17.00;11.50;;;20.60;99.90;;;;;;2603271;54;20038;31
2023/06/11 05:04:13;;;;;;;12.65;10.80;;;20.80;99.90;;;;;;2603480;54;20027;31
2023/06/11 05:06:49;;;;;;;16.90;11.20;;;20.90;99.90;;;;;;2603381;54;20046;31
2023/06/11 05:09:31;;;;;;;11.75;10.55;;;21.10;99.90;;;;;;2603260;54;20118;31
2023/06/11 05:12:08;;;;;;;12.48;11.23;;;21.20;99.90;;;;;;2603277;54;20899;31
2023/06/11 05:14:44;;;;;;;13.23;10.65;;;21.30;99.90;;;;;;2603353;54;20882;31
2023/06/11 05:17:19;;;;;;;15.73;11.43;;;21.40;99.90;;;;;;2603324;54;20026;31
2023/06/11 05:19:56;;;;;;;12.02;10.82;;;21.50;99.90;;;;;;2621934;46;20830;31
2023/06/11 05:22:30;;;;;;;12.40;9.90;;;21.60;99.90;;;;;;2603093;54;20022;31
2023/06/11 05:25:14;;;;;;;16.95;10.43;;;21.80;99.90;;;;;;2603101;54;20943;31
2023/06/11 05:27:50;;;;;;;11.77;10.55;;;21.90;99.90;;;;;;2603378;54;20866;31
2023/06/11 05:30:25;;;;;;;11.02;9.93;;;22.00;99.90;;;;;;2621767;46;20870;31
2023/06/11 05:33:01;;;;;;;12.63;9.40;;;22.10;99.90;;;;;;2603406;54;20111;31
2023/06/11 05:35:36;;;;;;;12.65;10.15;;;22.30;99.90;;;;;;2603122;54;20922;31
2023/06/11 05:38:11;;;;;;;10.80;9.77;;;22.50;99.90;;;;;;2603137;54;20854;31
2023/06/11 05:40:51;;;;;;;11.57;10.38;;;22.60;99.90;;;;;;2603319;54;21016;31
2023/06/11 05:43:26;;;;;;;10.07;9.10;;;22.70;99.90;;;;;;2621798;46;20031;31
2023/06/11 05:46:01;;;;;;;10.93;9.57;;;22.80;99.90;;;;;;2603247;54;20873;31
2023/06/11 05:48:36;;;;;;;10.10;9.10;;;22.80;99.90;;;;;;2621279;46;20026;31
2023/06/11 05:51:11;;;;;;;12.45;9.00;;;22.90;99.90;;;;;;2603297;54;20919;31
2023/06/11 05:53:47;;;;;;;12.20;9.77;;;23.10;99.90;;;;;;2621659;46;20254;31
2023/06/11 05:56:25;;;;;;;10.40;9.35;;;23.20;99.90;;;;;;2602967;54;20893;31
2023/06/11 05:59:01;;;;;;;9.50;8.60;;;23.30;99.90;;;;;;2621588;46;20026;31
2023/06/11 06:01:36;;;;;;;9.40;8.40;;;23.40;99.90;;;;;;2603197;54;20895;31
2023/06/11 06:04:11;;;;;;;10.00;9.10;;;23.60;99.90;;;;;;2603093;54;21013;31
2023/06/11 06:06:47;;;;;;;9.60;8.70;;;23.70;99.90;;;;;;2603067;54;20034;31
2023/06/11 06:09:21;;;;;;;10.35;8.00;;;23.70;99.90;;;;;;2621217;46;20315;31
2023/06/11 06:12:00;;;;;;;8.70;7.82;;;23.80;99.90;;;;;;2602872;54;20963;31
2023/06/11 06:14:35;;;;;;;9.17;8.17;;;24.10;99.90;;;;;;2603190;54;20045;31
2023/06/11 06:17:11;;;;;;;8.35;7.50;;;24.30;99.90;;;;;;2603160;54;20023;31
2023/06/11 06:19:47;;;;;;;11.77;8.07;;;24.40;99.90;;;;;;2603173;54;20235;31
2023/06/11 06:22:22;;;;;;;8.00;7.20;;;24.40;99.90;;;;;;2603086;54;20157;31
2023/06/11 06:24:56;;;;;;;8.35;7.30;;;24.60;99.90;;;;;;2603009;54;20149;31
2023/06/11 06:27:39;;;;;;;8.13;7.25;;;24.60;99.90;;;;;;2602777;54;20033;31
2023/06/11 06:30:15;;;;;;;10.05;7.47;;;24.70;99.90;;;;;;2621274;46;21107;31
2023/06/11 06:32:50;;;;;;;7.65;6.85;;;24.60;99.90;;;;;;2620938;46;20026;31
2023/06/11 06:35:24;;;;;;;9.77;6.95;;;24.80;99.90;;;;;;2621461;46;22314;31
2023/06/11 06:37:59;;;;;;;7.93;7.07;;;25.00;99.90;;;;;;2621313;46;20030;31
2023/06/11 06:40:34;;;;;;;8.50;7.60;;;25.10;99.90;;;;;;2621460;46;20085;31
2023/06/11 06:43:12;;;;;;;9.73;7.13;;;25.20;99.90;;;;;;2621418;46;20115;31
2023/06/11 06:45:51;;;;;;;7.13;6.43;;;25.30;99.90;;;;;;2602826;54;20289;31
2023/06/11 06:48:31;;;;;;;7.88;7.10;;;25.50;99.90;;;;;;2603088;54;20026;31
2023/06/11 06:51:05;;;;;;;7.70;6.65;;;25.60;99.90;;;;;;2602803;54;20938;31
2023/06/11 06:53:41;;;;;;;8.60;6.70;;;25.50;99.90;;;;;;2603199;54;20932;31
2023/06/11 06:56:18;;;;;;;8.73;7.38;;;25.60;99.90;;;;;;2621362;46;20026;31
2023/06/11 06:58:55;;;;;;;6.50;5.65;;;25.50;99.90;;;;;;2602932;54;20072;31
2023/06/11 07:01:30;;;;;;;9.02;6.72;;;25.60;99.90;;;;;;2602676;54;21678;31
2023/06/11 07:04:06;;;;;;;7.03;6.32;;;25.60;99.90;;;;;;2602644;54;20995;31
2023/06/11 07:06:42;;;;;;;8.60;5.93;;;25.60;99.90;;;;;;2621053;46;20026;31
2023/06/11 07:09:17;;;;;;;10.45;6.00;;;25.60;99.90;;;;;;2602804;54;20034;31
2023/06/11 07:11:55;;;;;;;7.25;6.47;;;25.60;99.90;;;;;;2701199;39;21583;31
2023/06/11 07:14:33;;;;;;;7.82;6.13;;;25.70;99.90;;;;;;2602929;54;20058;31
2023/06/11 07:17:09;;;;;;;10.95;6.22;;;25.70;99.90;;;;;;2602662;54;20030;31
2023/06/11 07:19:45;;;;;;;8.60;6.37;;;25.80;99.90;;;;;;2621196;46;20089;31
2023/06/11 07:22:19;;;;;;;;;;;25.90;99.90;;;;;;2602941;54;20707;31
2023/06/11 07:24:56;;;;;;;7.32;6.50;;;26.10;99.90;;;;;;2621213;46;19989;31
2023/06/11 07:27:32;;;;;;;7.95;6.50;;;26.10;99.90;;;;;;2719995;39;21563;31
2023/06/11 07:30:12;;;;;;;8.43;6.30;;;26.10;99.90;;;;;;2602410;54;20026;31
2023/06/11 07:32:48;;;;;;;7.83;6.80;;;26.00;99.90;;;;;;2602642;54;20104;31
2023/06/11 07:35:22;;;;;;;7.88;6.57;;;26.00;99.90;;;;;;2602624;54;20242;31
2023/06/11 07:38:00;;;;;;;11.13;6.95;;;26.10;99.90;;;;;;2602897;54;20022;31
2023/06/11 07:40:35;;;;;;;12.95;6.32;;;26.10;99.90;;;;;;2602932;54;20038;31
2023/06/11 07:43:10;;;;;;;;;;;26.20;99.90;;;;;;2602794;54;20039;31
2023/06/11 07:45:47;;;;;;;8.70;6.20;;;26.10;99.90;;;;;;2621207;47;19935;31
2023/06/11 07:48:25;;;;;;;8.60;6.10;;;26.30;99.90;;;;;;2602654;54;20033;31
2023/06/11 07:51:01;;;;;;;9.63;6.80;;;26.50;99.90;;;;;;2607829;47;20250;31
2023/06/11 07:53:37;;;;;;;6.90;6.20;;;26.60;99.90;;;;;;2602322;54;20026;31
2023/06/11 07:56:13;;;;;;;8.15;6.80;;;26.70;99.90;;;;;;2602423;54;20850;31
2023/06/11 07:58:47;;;;;;;7.85;6.10;;;26.70;99.90;;;;;;2602610;54;20030;31
2023/06/11 08:01:25;;;;;;;7.30;5.70;;;26.40;99.90;;;;;;2602624;54;20039;31
2023/06/11 08:04:01;;;;;;;7.43;5.85;;;26.40;99.90;;;;;;2621115;47;20242;31
2023/06/11 08:06:35;;;;;;;6.72;6.03;;;26.40;99.90;;;;;;2602779;54;20026;31
2023/06/11 08:09:11;;;;;;;7.28;5.43;;;26.10;99.90;;;;;;2602909;54;20894;31
2023/06/11 08:11:46;;;;;;;7.23;5.53;;;26.30;99.90;;;;;;2602351;54;20858;31
2023/06/11 08:14:21;;;;;;;7.72;5.82;;;26.30;99.90;;;;;;2603554;54;20038;31
2023/06/11 08:16:58;;;;;;;6.57;5.83;;;26.40;99.90;;;;;;2603545;54;20970;31
2023/06/11 08:19:34;;;;;;;7.20;6.22;;;26.50;99.90;;;;;;2621826;46;20794;31
2023/06/11 08:22:09;;;;;;;7.82;6.10;;;26.70;99.90;;;;;;2701794;39;20498;31
2023/06/11 08:24:42;;;;;;;8.73;7.32;;;26.80;99.90;;;;;;2603485;54;20907;31
2023/06/11 08:27:17;;;;;;;9.40;6.07;;;27.00;99.90;;;;;;2603208;54;20033;31
2023/06/11 08:29:53;;;;;;;7.82;5.80;;;27.00;99.90;;;;;;2603297;54;20866;31
2023/06/11 08:32:31;;;;;;;6.75;5.80;;;27.00;99.90;;;;;;2603238;54;20026;31
2023/06/11 08:35:07;;;;;;;6.55;5.95;;;27.10;99.90;;;;;;2603407;54;20874;31
2023/06/11 08:37:41;;;;;;;7.30;5.90;;;27.00;99.90;;;;;;2603144;54;20026;31
2023/06/11 08:40:17;;;;;;;7.27;6.07;;;27.10;99.90;;;;;;2603401;54;20034;31
2023/06/11 08:42:52;;;;;;;5.83;5.33;;;27.20;99.90;;;;;;2603274;54;21328;31
2023/06/11 08:45:27;;;;;;;7.40;5.95;;;27.20;99.90;;;;;;2603162;54;20045;31
2023/06/11 08:48:05;;;;;;;6.43;5.22;;;27.20;99.90;;;;;;2603111;54;20068;31
2023/06/11 08:50:40;;;;;;;8.35;6.45;;;26.90;99.70;;;;;;2603357;54;20038;31
2023/06/11 08:53:15;;;;;;;7.70;6.20;;;26.80;99.00;;;;;;2621660;46;20085;31
2023/06/11 08:55:50;;;;;;;8.32;5.25;;;26.90;99.90;;;;;;2621912;46;20866;31
2023/06/11 08:58:25;;;;;;;6.25;4.95;;;26.90;98.50;;;;;;2603065;54;20764;31
2023/06/11 09:01:00;;;;;;;5.90;5.30;;;26.90;98.20;;;;;;2603388;54;20787;31
2023/06/11 09:03:37;;;;;;;8.07;5.70;;;27.00;97.70;;;;;;2621851;46;20231;31
2023/06/11 09:06:13;;;;;;;5.75;5.25;;;27.00;98.00;;;;;;2603343;54;20042;31
2023/06/11 09:08:59;;;;;;;7.20;5.55;;;27.10;98.60;;;;;;2603040;54;20052;31
2023/06/11 09:11:34;;;;;;;7.85;4.90;;;27.30;98.20;;;;;;2603225;54;20920;31
2023/06/11 09:14:10;;;;;;;5.53;4.45;;;27.30;96.10;;;;;;2603145;54;20026;31
2023/06/11 09:16:45;;;;;;;7.90;4.70;;;27.30;94.80;;;;;;2621396;46;20108;31
2023/06/11 09:19:23;;;;;;;6.00;4.85;;;27.40;94.50;;;;;;2603056;54;20763;31
2023/06/11 09:22:02;;;;;;;7.07;5.32;;;27.60;94.60;;;;;;2603108;54;20973;31
2023/06/11 09:24:36;;;;;;;8.20;4.50;;;27.60;95.00;;;;;;2602566;54;20096;31
2023/06/11 09:27:12;;;;;;;4.75;4.35;;;27.70;94.90;;;;;;2603188;54;20899;31
2023/06/11 09:29:46;;;;;;;5.35;4.22;;;27.70;92.20;;;;;;2603024;54;20085;31
2023/06/11 09:32:21;;;;;;;8.82;4.90;;;27.60;91.70;;;;;;2603173;54;20828;31
2023/06/11 09:35:11;;;;;;;8.05;4.30;;;27.70;92.30;;;;;;2603176;54;20862;31
2023/06/11 09:37:47;;;;;;;7.18;4.70;;;27.70;92.80;;;;;;2603129;54;20183;31
2023/06/11 09:40:23;;;;;;;;;;;27.70;93.40;;;;;;2603363;54;20026;31
2023/06/11 09:42:58;;;;;;;5.43;4.57;;;27.20;91.40;;;;;;2603092;54;19961;31
2023/06/11 09:45:34;;;;;;;7.22;4.72;;;26.90;92.90;;;;;;2602982;54;22471;31
2023/06/11 09:48:09;;;;;;;7.35;4.90;;;26.70;93.30;;;;;;2603213;54;20022;31
2023/06/11 09:50:45;;;;;;;;;;;26.60;93.00;;;;;;2603322;54;20030;31
2023/06/11 09:53:21;;;;;;;5.97;4.65;;;26.80;93.00;;;;;;2603129;54;19934;31
2023/06/11 09:55:56;;;;;;;6.95;4.45;;;26.80;92.70;;;;;;2603015;54;20022;31
2023/06/11 09:58:45;;;;;;;6.30;4.20;;;26.90;91.50;;;;;;2602928;54;20037;31
2023/06/11 10:01:20;;;;;;;5.20;4.60;;;27.00;91.70;;;;;;2603053;54;20842;31
2023/06/11 10:03:55;;;;;;;5.05;4.55;;;27.00;90.40;;;;;;2602931;54;20148;31
2023/06/11 10:06:35;;;;;;;5.65;4.80;;;27.00;91.50;;;;;;2602880;54;20934;31
2023/06/11 10:09:12;;;;;;;8.07;4.60;;;27.00;91.90;;;;;;2603159;54;20894;31
2023/06/11 10:11:50;;;;;;;5.80;5.00;;;27.20;91.50;;;;;;2602984;54;20027;31
2023/06/11 10:14:25;;;;;;;7.13;4.53;;;27.20;91.40;;;;;;2602858;54;20898;31
2023/06/11 10:17:02;;;;;;;5.90;4.80;;;27.40;91.40;;;;;;2602968;54;20026;31
2023/06/11 10:19:38;;;;;;;7.70;4.90;;;27.20;90.50;;;;;;2602864;54;21091;31
2023/06/11 10:22:15;;;;;;;;;;;27.30;91.30;;;;;;2621262;46;20028;31
2023/06/11 10:25:00;;;;;;;6.60;3.95;;;27.50;90.30;;;;;;2621405;46;20053;31
2023/06/11 10:27:39;;;;;;;5.55;3.90;;;27.50;88.90;;;;;;2621622;46;20928;31
2023/06/11 10:30:24;;;;;;;6.40;5.00;;;27.50;89.30;;;;;;2602902;54;20031;31
2023/06/11 10:32:58;;;;;;;7.20;4.72;;;27.50;88.90;;;;;;2621138;46;21155;31
2023/06/11 10:35:36;;;;;;;7.63;4.57;;;27.50;90.00;;;;;;2621083;46;20027;31
2023/06/11 10:38:15;;;;;;;6.90;4.72;;;27.60;89.40;;;;;;2621365;46;20030;31
2023/06/11 10:40:50;;;;;;;7.70;3.88;;;27.50;87.40;;;;;;2603110;54;20915;31
2023/06/11 10:43:24;;;;;;;;;;;27.50;87.30;;;;;;2602932;54;20903;31
2023/06/11 10:46:03;;;;;;;7.28;4.22;;;27.60;86.60;;;;;;2603026;54;20005;31
2023/06/11 10:48:39;;;;;;;5.43;3.92;;;27.80;88.20;;;;;;2621163;46;20038;31
2023/06/11 10:51:15;;;;;;;;;;;27.60;88.00;;;;;;2602984;54;20888;31
2023/06/11 10:54:02;;;;;;;6.63;3.90;;;27.50;86.30;;;;;;2621106;46;19935;31
2023/06/11 10:56:39;;;;;;;5.15;4.20;;;27.40;86.00;;;;;;2602810;54;20109;31
2023/06/11 10:59:14;;;;;;;7.75;4.28;;;27.50;86.50;;;;;;2602665;54;21074;31
2023/06/11 11:01:49;;;;;;;6.47;4.32;;;27.50;87.40;;;;;;2621294;46;20723;31
2023/06/11 11:04:25;;;;;;;5.70;3.80;;;27.40;85.70;;;;;;2620825;46;20033;31
2023/06/11 11:07:07;;;;;;;5.00;3.60;;;27.30;85.60;;;;;;2602809;54;20026;31
2023/06/11 11:09:46;;;;;;;5.90;3.63;;;27.20;86.00;;;;;;2602944;54;20048;31
2023/06/11 11:12:21;;;;;;;7.05;4.05;;;27.00;82.30;;;;;;2621082;46;20031;31
2023/06/11 11:14:55;;;;;;;;;;;26.90;80.10;;;;;;2602797;54;20927;31
2023/06/11 11:17:27;;;;;;;7.50;4.15;;;26.90;78.80;;;;;;2602739;54;21096;31
2023/06/11 11:20:03;;;;;;;8.83;3.83;;;27.00;82.40;;;;;;2602746;54;20030;31
2023/06/11 11:22:38;;;;;;;6.18;3.70;;;27.00;80.40;;;;;;2602822;54;21312;31
2023/06/11 11:25:18;;;;;;;5.88;3.45;;;27.10;81.40;;;;;;2602711;54;20891;31
2023/06/11 11:27:53;;;;;;;5.60;3.90;;;27.00;81.50;;;;;;2602572;54;20037;31
2023/06/11 11:30:28;;;;;;;3.65;3.33;;;26.80;81.70;;;;;;2621231;46;20772;31
2023/06/11 11:33:03;;;;;;;7.80;3.60;;;26.70;82.70;;;;;;2602837;54;20055;31
2023/06/11 11:35:47;;;;;;;6.55;3.50;;;26.80;81.80;;;;;;2602524;54;20038;31
2023/06/11 11:38:21;;;;;;;5.27;3.87;;;26.80;80.50;;;;;;2621102;46;20245;31
2023/06/11 11:41:00;;;;;;;5.32;3.55;;;26.90;81.30;;;;;;2620879;46;20053;31
2023/06/11 11:43:39;;;;;;;4.32;3.65;;;26.90;82.00;;;;;;2602773;54;21234;31
2023/06/11 11:46:18;;;;;;;4.95;3.42;;;26.90;80.00;;;;;;2602675;54;20037;31
2023/06/11 11:48:56;;;;;;;7.75;3.33;;;27.00;80.10;;;;;;2604375;54;20026;31
2023/06/11 11:51:30;;;;;;;5.63;3.78;;;27.00;81.70;;;;;;2622293;46;20027;31
2023/06/11 11:54:05;;;;;;;5.88;3.25;;;26.90;80.00;;;;;;2604523;54;20045;31
2023/06/11 11:56:43;;;;;;;5.40;4.00;;;26.70;80.00;;;;;;2604455;54;20034;31
2023/06/11 11:59:21;;;;;;;4.80;3.42;;;26.70;80.40;;;;;;2604095;54;20048;31
2023/06/11 12:02:00;;;;;;;7.07;3.30;;;26.80;81.80;;;;;;2604356;54;20033;31
2023/06/11 12:04:38;;;;;;;7.28;3.70;;;26.80;80.80;;;;;;2604359;54;20034;31
2023/06/11 12:07:15;;;;;;;4.85;3.72;;;26.70;78.40;;;;;;2604518;54;20081;31
2023/06/11 12:09:49;;;;;;;4.05;3.40;;;26.50;79.10;;;;;;2604360;54;20030;31
2023/06/11 12:12:25;;;;;;;7.20;3.10;;;26.30;79.80;;;;;;2622763;46;22391;31
2023/06/11 12:15:02;;;;;;;7.18;4.43;;;26.20;78.80;;;;;;2604396;54;21234;31
2023/06/11 12:17:37;;;;;;;8.23;3.60;;;26.20;79.10;;;;;;2622879;46;20765;31
2023/06/11 12:20:12;;;;;;;4.30;3.27;;;26.20;79.50;;;;;;2604338;54;21242;31
2023/06/11 12:22:47;;;;;;;;;;;26.30;79.10;;;;;;2604475;54;20076;31
2023/06/11 12:25:21;;;;;;;4.72;3.33;;;26.30;80.00;;;;;;2604446;54;19938;31
2023/06/11 12:27:59;;;;;;;5.97;3.90;;;26.30;79.80;;;;;;2604552;54;20033;31
2023/06/11 12:30:34;;;;;;;5.60;3.65;;;26.30;78.00;;;;;;2622798;46;20026;31
2023/06/11 12:33:08;;;;;;;6.95;3.30;;;26.30;79.30;;;;;;2604307;54;20022;31
2023/06/11 12:35:43;;;;;;;7.18;3.65;;;26.40;78.40;;;;;;2622618;46;21168;31
2023/06/11 12:38:18;;;;;;;5.95;3.40;;;26.40;78.10;;;;;;2604110;54;20037;31
2023/06/11 12:40:53;;;;;;;5.40;3.30;;;26.30;75.80;;;;;;2604394;54;20030;31
2023/06/11 12:43:31;;;;;;;6.25;3.20;;;26.30;77.50;;;;;;2604223;54;20030;31
2023/06/11 12:46:07;;;;;;;9.65;3.60;;;26.40;78.40;;;;;;2604060;54;20845;31
2023/06/11 12:48:41;;;;;;;5.55;3.50;;;26.60;79.10;;;;;;2604311;54;20089;31
2023/06/11 12:51:19;;;;;;;7.40;3.80;;;26.60;78.20;;;;;;2622832;46;20946;31
2023/06/11 12:53:52;;;;;;;7.10;3.38;;;26.50;75.40;;;;;;2604195;54;20022;31
2023/06/11 12:56:28;;;;;;;6.55;3.75;;;26.40;76.30;;;;;;2603972;54;20031;31
2023/06/11 12:59:05;;;;;;;4.00;3.03;;;26.40;75.20;;;;;;2603593;54;20057;31
2023/06/11 13:01:41;;;;;;;7.72;3.17;;;26.40;76.00;;;;;;2621776;46;20898;31
2023/06/11 13:04:16;;;;;;;7.95;3.30;;;26.40;76.90;;;;;;2602874;54;20107;31
2023/06/11 13:06:51;;;;;;;7.45;4.95;;;26.30;76.10;;;;;;2603286;54;20855;31
2023/06/11 13:09:26;;;;;;;7.68;4.07;;;26.30;75.50;;;;;;2603029;54;20057;31
2023/06/11 13:12:01;;;;;;;;;;;26.30;76.60;;;;;;2603428;54;20033;31
2023/06/11 13:14:39;;;;;;;6.20;3.40;;;26.30;77.90;;;;;;2603257;54;19941;31
2023/06/11 13:17:14;;;;;;;4.60;3.10;;;26.20;75.40;;;;;;2603051;54;20068;31
2023/06/11 13:19:49;;;;;;;3.67;3.25;;;26.30;76.60;;;;;;2603232;54;20250;31
2023/06/11 13:22:24;;;;;;;4.65;3.10;;;26.30;76.40;;;;;;2621557;46;20030;31
2023/06/11 13:25:00;;;;;;;6.00;3.22;;;26.30;75.60;;;;;;2603069;54;20061;31
2023/06/11 13:27:35;;;;;;;3.35;3.05;;;26.30;75.70;;;;;;2621516;46;20137;31
2023/06/11 13:30:09;;;;;;;5.03;3.00;;;26.40;74.40;;;;;;2603087;54;20038;31
2023/06/11 13:32:47;;;;;;;7.40;3.30;;;26.30;74.80;;;;;;2603296;54;20877;31
2023/06/11 13:35:23;;;;;;;5.45;2.85;;;26.30;73.80;;;;;;2621442;46;20034;31
2023/06/11 13:37:58;;;;;;;5.20;2.90;;;26.30;73.70;;;;;;2603048;54;20034;31
2023/06/11 13:40:32;;;;;;;6.60;3.03;;;26.30;74.70;;;;;;2603040;54;20027;31
2023/06/11 13:43:08;;;;;;;4.40;2.70;;;26.30;74.40;;;;;;2602992;54;20034;31
2023/06/11 13:45:44;;;;;;;5.07;3.03;;;26.30;74.50;;;;;;2603104;54;20027;31
2023/06/11 13:48:22;;;;;;;4.90;3.37;;;26.20;72.70;;;;;;2603068;54;20089;31